Time;durP1;ratioP1;P1;durP2;ratioP2;P2;SDS_P1;SDS_P2;PMS_P1;PMS_P2;Temp;Humidity;BMP_temperature;BMP_pressure;BME280_temperature;BME280_humidity;BME280_pressure;Samples;Min_cycle;Max_cycle;Signal;HPM_P1;HPM_P2
2021/08/06 00:01:01;;;;;;;8.73;7.87;;;17.60;99.90;;;;;;5053353;28;20435;-85
2021/08/06 00:03:29;;;;;;;8.40;7.63;;;17.60;99.90;;;;;;5058125;28;20465;-85
2021/08/06 00:05:57;;;;;;;9.77;8.43;;;17.60;99.90;;;;;;5057186;28;20523;-84
2021/08/06 00:08:23;;;;;;;9.20;8.23;;;16.80;99.90;;;;;;5057379;28;20473;-86
2021/08/06 00:10:50;;;;;;;10.07;9.00;;;17.60;99.90;;;;;;5056577;28;20481;-86
2021/08/06 00:13:17;;;;;;;9.40;8.50;;;17.70;99.90;;;;;;5057132;28;20453;-84
2021/08/06 00:15:43;;;;;;;9.57;8.67;;;17.60;99.90;;;;;;5057170;28;20443;-84
2021/08/06 00:18:10;;;;;;;10.00;9.13;;;17.60;99.90;;;;;;5057282;28;20497;-83
2021/08/06 00:20:38;;;;;;;10.00;9.10;;;17.60;99.90;;;;;;5057548;28;20517;-83
2021/08/06 00:23:05;;;;;;;11.60;10.37;;;17.60;99.90;;;;;;5057006;28;20458;-85
2021/08/06 00:25:32;;;;;;;12.10;11.10;;;17.60;99.90;;;;;;5056662;28;20462;-85
2021/08/06 00:28:00;;;;;;;10.93;9.93;;;;;;;;;;5055693;28;20458;-86
2021/08/06 00:30:29;;;;;;;9.97;9.13;;;17.60;99.90;;;;;;5053726;28;20232;-86
2021/08/06 00:32:56;;;;;;;9.53;8.73;;;16.40;99.90;;;;;;5052839;28;20823;-86
2021/08/06 00:35:23;;;;;;;8.67;8.00;;;17.60;99.90;;;;;;5052076;28;20510;-86
2021/08/06 00:37:52;;;;;;;8.77;7.93;;;17.60;99.90;;;;;;5050937;28;20526;-85
2021/08/06 00:40:19;;;;;;;9.20;8.33;;;;;;;;;;5051440;28;20463;-85
2021/08/06 00:42:46;;;;;;;9.10;8.30;;;;;;;;;;5049551;28;20454;-86
2021/08/06 00:45:13;;;;;;;9.10;8.40;;;17.50;99.90;;;;;;5048784;28;20451;-86
2021/08/06 00:47:39;;;;;;;10.23;9.37;;;17.30;99.90;;;;;;5053645;28;20431;-84
2021/08/06 00:50:09;;;;;;;9.30;8.57;;;17.50;99.90;;;;;;5056612;28;20430;-85
2021/08/06 00:52:36;;;;;;;10.03;9.23;;;17.50;99.90;;;;;;5048043;28;20208;-86
2021/08/06 00:55:05;;;;;;;9.90;9.13;;;17.50;99.90;;;;;;5049152;28;20459;-84
2021/08/06 00:57:32;;;;;;;9.83;8.30;;;17.50;99.90;;;;;;5058619;28;20439;-85
2021/08/06 00:59:58;;;;;;;9.53;8.80;;;17.40;99.90;;;;;;5057362;28;20493;-85
2021/08/06 01:02:30;;;;;;;11.77;9.97;;;17.40;99.90;;;;;;5057335;28;20447;-85
2021/08/06 01:05:02;;;;;;;11.98;10.80;;;17.50;99.90;;;;;;5054412;28;20430;-86
2021/08/06 01:07:35;;;;;;;9.60;8.80;;;17.50;99.90;;;;;;5050807;28;20184;-86
2021/08/06 01:10:08;;;;;;;10.30;9.20;;;17.50;99.90;;;;;;5045021;28;20463;-85
2021/08/06 01:12:41;;;;;;;10.20;9.20;;;17.50;99.90;;;;;;5043330;28;20423;-85
2021/08/06 01:15:11;;;;;;;9.77;8.88;;;17.40;99.90;;;;;;5042347;28;20461;-86
2021/08/06 01:17:42;;;;;;;11.70;10.50;;;17.50;99.90;;;;;;5043912;28;20216;-84
2021/08/06 01:20:14;;;;;;;13.00;10.83;;;17.50;99.90;;;;;;5045054;28;20489;-86
2021/08/06 01:22:46;;;;;;;12.80;11.50;;;17.50;99.90;;;;;;5045344;28;20513;-86
2021/08/06 01:25:31;;;;;;;10.43;9.47;;;17.50;99.90;;;;;;5044873;28;20866;-85
2021/08/06 01:27:58;;;;;;;9.80;8.90;;;17.50;99.90;;;;;;5044372;28;20463;-86
2021/08/06 01:30:25;;;;;;;11.70;10.50;;;17.60;99.90;;;;;;5042240;28;20439;-86
2021/08/06 01:32:55;;;;;;;9.97;8.97;;;17.70;99.90;;;;;;5043877;28;20482;-85
2021/08/06 01:35:22;;;;;;;12.30;10.20;;;17.60;99.90;;;;;;5044654;28;20471;-86
2021/08/06 01:37:48;;;;;;;11.03;10.13;;;17.70;99.90;;;;;;5042935;28;20442;-85
2021/08/06 01:40:16;;;;;;;11.43;10.40;;;17.60;99.90;;;;;;5042389;28;20482;-86
2021/08/06 01:42:48;;;;;;;11.57;10.47;;;17.60;99.90;;;;;;5051327;28;20459;-86
2021/08/06 01:45:20;;;;;;;13.67;10.17;;;17.60;99.90;;;;;;5054421;28;20431;-86
2021/08/06 01:47:50;;;;;;;11.50;10.50;;;17.50;99.90;;;;;;5053856;28;20411;-86
2021/08/06 01:50:22;;;;;;;11.97;10.87;;;17.60;99.90;;;;;;5049833;28;20439;-86
2021/08/06 01:52:54;;;;;;;10.90;10.00;;;17.60;99.90;;;;;;5058922;28;20423;-85
2021/08/06 01:55:21;;;;;;;11.60;10.60;;;17.70;99.90;;;;;;5058698;28;20427;-85
2021/08/06 01:57:50;;;;;;;11.27;10.37;;;17.70;99.90;;;;;;5058906;28;20463;-86
2021/08/06 02:00:17;;;;;;;12.00;10.73;;;17.60;99.90;;;;;;5059871;28;20471;-85
2021/08/06 02:02:43;;;;;;;11.13;10.10;;;17.50;99.90;;;;;;5059574;28;20454;-86
2021/08/06 02:05:10;;;;;;;11.33;10.43;;;17.50;99.90;;;;;;5059228;28;20435;-86
2021/08/06 02:07:37;;;;;;;12.57;11.27;;;17.50;99.90;;;;;;5056705;28;20438;-86
2021/08/06 02:10:05;;;;;;;10.83;9.83;;;17.50;99.90;;;;;;5055860;28;20463;-85
2021/08/06 02:12:33;;;;;;;10.60;9.70;;;17.40;99.90;;;;;;5055913;28;20415;-85
2021/08/06 02:15:01;;;;;;;11.23;10.13;;;17.40;99.90;;;;;;5049142;28;20493;-85
2021/08/06 02:17:28;;;;;;;10.10;9.20;;;17.40;99.90;;;;;;5043288;28;20453;-85
2021/08/06 02:19:56;;;;;;;11.17;10.17;;;17.40;99.90;;;;;;5044044;28;20483;-86
2021/08/06 02:22:24;;;;;;;10.73;9.83;;;17.40;99.90;;;;;;5045224;28;20451;-86
2021/08/06 02:24:51;;;;;;;10.70;9.63;;;17.30;99.90;;;;;;5043972;28;20451;-85
2021/08/06 02:27:20;;;;;;;9.20;8.50;;;17.30;99.90;;;;;;5043963;28;20517;-86
2021/08/06 02:29:48;;;;;;;10.10;9.20;;;17.30;99.90;;;;;;5043398;28;20517;-86
2021/08/06 02:32:16;;;;;;;10.40;9.50;;;17.30;99.90;;;;;;5043918;28;20535;-86
2021/08/06 02:34:43;;;;;;;10.67;9.77;;;17.30;99.90;;;;;;5046038;28;20478;-86
2021/08/06 02:37:09;;;;;;;9.30;8.60;;;17.30;99.90;;;;;;5047640;28;20447;-87
2021/08/06 02:39:36;;;;;;;10.00;9.17;;;17.40;99.90;;;;;;5042374;28;20499;-85
2021/08/06 02:42:05;;;;;;;11.43;10.43;;;17.40;99.90;;;;;;5041720;28;20477;-86
2021/08/06 02:44:35;;;;;;;11.47;10.57;;;17.40;99.90;;;;;;5040852;28;20514;-85
2021/08/06 02:47:02;;;;;;;9.93;9.10;;;17.50;99.90;;;;;;5043574;28;20513;-86
2021/08/06 02:49:33;;;;;;;10.60;9.70;;;17.50;99.90;;;;;;5041785;28;20490;-86
2021/08/06 02:52:00;;;;;;;10.33;9.33;;;17.40;99.90;;;;;;5042134;28;20470;-86
2021/08/06 02:54:26;;;;;;;10.50;9.60;;;17.60;99.90;;;;;;5041455;28;20557;-86
2021/08/06 02:56:53;;;;;;;10.90;9.80;;;17.50;99.90;;;;;;5054540;28;20477;-85
2021/08/06 02:59:20;;;;;;;10.23;9.30;;;17.50;99.90;;;;;;5044835;28;20455;-86
2021/08/06 03:01:47;;;;;;;11.27;10.37;;;17.50;99.90;;;;;;5045889;28;20490;-86
2021/08/06 03:04:14;;;;;;;10.10;9.23;;;17.50;99.90;;;;;;5057986;28;20466;-85
2021/08/06 03:06:42;;;;;;;11.10;9.90;;;17.60;99.90;;;;;;5056929;28;20466;-85
2021/08/06 03:09:08;;;;;;;9.73;8.73;;;17.50;99.90;;;;;;5068436;22;20510;-83
2021/08/06 03:11:35;;;;;;;11.40;10.60;;;17.50;99.90;;;;;;5057461;28;20427;-83
2021/08/06 03:14:02;;;;;;;10.83;9.83;;;17.50;99.90;;;;;;5057244;28;20443;-82
2021/08/06 03:16:29;;;;;;;11.27;10.27;;;17.40;99.90;;;;;;5050928;28;20861;-84
2021/08/06 03:18:55;;;;;;;11.00;10.00;;;17.50;99.90;;;;;;5040978;28;20474;-84
2021/08/06 03:21:22;;;;;;;11.70;10.60;;;17.60;99.90;;;;;;5039459;28;20483;-84
2021/08/06 03:23:50;;;;;;;12.60;11.57;;;17.50;99.90;;;;;;5038851;28;20443;-85
2021/08/06 03:26:16;;;;;;;10.70;9.80;;;17.50;99.90;;;;;;5039518;28;20797;-85
2021/08/06 03:28:43;;;;;;;10.93;9.83;;;17.50;99.90;;;;;;5042668;28;20451;-84
2021/08/06 03:31:10;;;;;;;11.00;10.00;;;17.50;99.90;;;;;;5058392;28;20435;-83
2021/08/06 03:33:36;;;;;;;11.90;10.00;;;17.50;99.90;;;;;;5059215;28;20446;-83
2021/08/06 03:36:03;;;;;;;10.67;9.50;;;17.50;99.90;;;;;;5057499;28;20486;-84
2021/08/06 03:38:30;;;;;;;11.63;10.60;;;17.40;99.90;;;;;;5048782;28;20463;-84
2021/08/06 03:41:00;;;;;;;11.40;10.40;;;17.60;99.90;;;;;;5045489;28;20483;-84
2021/08/06 03:43:27;;;;;;;12.37;11.27;;;17.40;99.90;;;;;;5044918;28;20416;-84
2021/08/06 03:45:53;;;;;;;9.97;9.07;;;17.40;99.90;;;;;;5043434;28;20443;-84
2021/08/06 03:48:20;;;;;;;13.33;11.97;;;17.60;99.90;;;;;;5044716;28;20497;-85
2021/08/06 03:50:46;;;;;;;11.57;10.67;;;17.20;99.90;;;;;;5043857;28;20439;-85
2021/08/06 03:53:13;;;;;;;12.30;11.00;;;17.30;99.90;;;;;;5042263;28;20455;-86
2021/08/06 03:55:40;;;;;;;10.90;9.90;;;17.40;99.90;;;;;;5041549;28;20449;-86
2021/08/06 03:58:08;;;;;;;11.80;10.80;;;17.30;99.90;;;;;;5040295;28;20212;-86
2021/08/06 04:00:38;;;;;;;11.53;10.47;;;16.80;99.90;;;;;;5040370;28;21047;-86
2021/08/06 04:03:05;;;;;;;11.77;10.50;;;17.20;99.90;;;;;;5045654;28;20940;-86
2021/08/06 04:05:32;;;;;;;12.70;11.50;;;17.20;99.90;;;;;;5040868;28;20447;-86
2021/08/06 04:07:59;;;;;;;11.30;10.20;;;17.10;99.90;;;;;;5044504;28;20459;-84
2021/08/06 04:10:26;;;;;;;12.40;10.90;;;17.20;99.90;;;;;;5052828;28;20478;-82
2021/08/06 04:12:52;;;;;;;11.80;10.80;;;17.30;99.90;;;;;;5053985;28;20447;-83
2021/08/06 04:15:20;;;;;;;11.47;10.47;;;17.30;99.90;;;;;;5059123;28;20493;-83
2021/08/06 04:17:47;;;;;;;12.47;11.23;;;17.20;99.90;;;;;;5052414;28;20454;-85
2021/08/06 04:20:14;;;;;;;11.47;10.37;;;17.10;99.90;;;;;;5048218;28;20473;-85
2021/08/06 04:22:42;;;;;;;12.80;11.83;;;17.10;99.90;;;;;;5047137;28;20453;-85
2021/08/06 04:25:11;;;;;;;10.80;9.80;;;17.20;99.90;;;;;;5046443;28;20446;-85
2021/08/06 04:27:38;;;;;;;12.47;11.27;;;17.20;99.90;;;;;;5051132;28;20435;-85
2021/08/06 04:30:08;;;;;;;11.87;10.90;;;17.40;99.90;;;;;;5059457;28;20466;-84
2021/08/06 04:32:39;;;;;;;12.50;11.20;;;17.20;99.90;;;;;;5044241;28;20522;-84
2021/08/06 04:35:08;;;;;;;12.77;11.60;;;17.20;99.90;;;;;;5043336;28;20500;-84
2021/08/06 04:37:36;;;;;;;12.47;11.37;;;17.30;99.90;;;;;;5044277;28;20541;-85
2021/08/06 04:40:04;;;;;;;11.47;10.57;;;17.30;99.90;;;;;;5045498;28;20474;-84
2021/08/06 04:42:31;;;;;;;10.87;9.90;;;17.40;99.90;;;;;;5045863;28;20455;-85
2021/08/06 04:44:59;;;;;;;12.40;11.37;;;17.50;99.90;;;;;;5045793;28;20489;-85
2021/08/06 04:47:28;;;;;;;11.17;10.27;;;17.40;99.90;;;;;;5045471;28;20485;-84
2021/08/06 04:49:57;;;;;;;13.30;10.60;;;17.50;99.90;;;;;;5047730;28;20995;-84
2021/08/06 04:52:25;;;;;;;11.90;10.80;;;17.50;99.90;;;;;;5046350;28;20475;-85
2021/08/06 04:54:52;;;;;;;13.00;11.70;;;17.50;99.90;;;;;;5046094;28;20435;-84
2021/08/06 04:57:22;;;;;;;12.67;11.50;;;17.30;99.90;;;;;;5045571;28;20530;-85
2021/08/06 04:59:49;;;;;;;11.30;10.30;;;17.20;99.90;;;;;;5045077;28;20478;-86
2021/08/06 05:02:18;;;;;;;15.27;13.57;;;17.40;99.90;;;;;;5046069;28;20479;-85
2021/08/06 05:04:45;;;;;;;14.00;12.80;;;17.30;99.90;;;;;;5045109;28;20462;-84
2021/08/06 05:07:20;;;;;;;13.43;12.33;;;17.70;99.90;;;;;;5045430;28;20941;-84
2021/08/06 05:09:49;;;;;;;17.70;13.10;;;17.40;99.90;;;;;;5045659;28;20528;-84
2021/08/06 05:12:17;;;;;;;14.83;13.10;;;17.30;99.90;;;;;;5049774;28;20450;-84
2021/08/06 05:14:47;;;;;;;15.57;13.90;;;17.30;99.90;;;;;;5054294;28;20463;-83
2021/08/06 05:17:14;;;;;;;15.60;13.97;;;17.30;99.90;;;;;;5050925;28;20454;-84
2021/08/06 05:19:42;;;;;;;15.03;13.77;;;17.40;99.90;;;;;;5046257;28;20485;-86
2021/08/06 05:22:10;;;;;;;18.93;14.40;;;17.40;99.90;;;;;;5045626;28;20596;-85
2021/08/06 05:24:39;;;;;;;17.70;14.50;;;17.40;99.90;;;;;;5045293;28;20474;-86
2021/08/06 05:27:09;;;;;;;15.63;14.03;;;17.40;99.90;;;;;;5047480;28;20506;-84
2021/08/06 05:29:39;;;;;;;13.47;12.27;;;17.40;99.90;;;;;;5056883;28;20973;-84
2021/08/06 05:32:06;;;;;;;14.53;13.07;;;17.30;99.90;;;;;;5054241;28;20439;-83
2021/08/06 05:34:33;;;;;;;14.30;12.77;;;17.50;99.90;;;;;;5055911;28;20471;-84
2021/08/06 05:37:02;;;;;;;15.53;13.20;;;17.60;99.90;;;;;;5057005;28;20451;-84
2021/08/06 05:51:15;;;;;;;15.73;14.10;;;17.60;99.90;;;;;;4941596;29;20222;-85
2021/08/06 05:54:08;;;;;;;14.70;13.17;;;17.50;99.90;;;;;;4978897;29;20453;-86
2021/08/06 05:56:35;;;;;;;16.30;14.60;;;20.00;99.90;;;;;;5028169;22;20475;-86
2021/08/06 05:59:01;;;;;;;16.00;14.20;;;17.70;99.90;;;;;;5038925;28;20451;-87
2021/08/06 06:01:29;;;;;;;20.03;13.23;;;17.20;99.90;;;;;;5038606;28;20444;-86
2021/08/06 06:03:56;;;;;;;19.53;16.03;;;17.70;99.90;;;;;;5039191;28;20448;-86
2021/08/06 06:06:23;;;;;;;15.37;12.87;;;17.70;99.90;;;;;;5038995;28;20468;-86
2021/08/06 06:08:49;;;;;;;17.00;13.47;;;17.80;99.90;;;;;;5035916;28;20443;-86
2021/08/06 06:11:16;;;;;;;16.60;14.80;;;17.80;99.90;;;;;;5034401;28;20476;-86
2021/08/06 06:13:43;;;;;;;19.27;13.30;;;17.80;99.90;;;;;;5035750;28;20451;-86
2021/08/06 06:16:10;;;;;;;15.80;13.27;;;17.80;99.90;;;;;;5032348;28;20491;-86
2021/08/06 06:18:38;;;;;;;15.33;13.80;;;17.80;99.90;;;;;;5029890;28;20451;-86
2021/08/06 06:21:06;;;;;;;15.70;12.33;;;17.90;99.90;;;;;;5032191;28;20451;-85
2021/08/06 06:23:32;;;;;;;15.90;12.97;;;17.90;99.90;;;;;;5030815;28;20470;-85
2021/08/06 06:25:59;;;;;;;15.70;12.63;;;18.00;99.90;;;;;;5030379;28;20463;-86
2021/08/06 06:28:26;;;;;;;14.07;12.60;;;17.50;99.90;;;;;;5030526;28;20840;-86
2021/08/06 06:30:53;;;;;;;13.73;11.30;;;18.10;99.90;;;;;;5029720;28;20479;-86
2021/08/06 06:33:19;;;;;;;13.87;12.73;;;18.20;99.90;;;;;;5029427;28;20428;-86
2021/08/06 06:35:47;;;;;;;13.20;11.50;;;18.90;99.90;;;;;;5029124;28;20448;-86
2021/08/06 06:38:14;;;;;;;12.50;11.20;;;18.30;99.90;;;;;;5029169;28;20505;-86
2021/08/06 06:40:41;;;;;;;12.47;11.17;;;;;;;;;;5026521;28;20460;-86
2021/08/06 06:43:08;;;;;;;10.30;9.40;;;18.30;99.90;;;;;;5026866;28;20451;-86
2021/08/06 06:45:35;;;;;;;13.83;11.90;;;18.50;99.90;;;;;;5029362;28;20452;-85
2021/08/06 06:48:01;;;;;;;15.63;12.07;;;18.50;99.90;;;;;;5031180;28;20444;-83
2021/08/06 06:50:30;;;;;;;20.57;13.50;;;18.50;99.90;;;;;;5029798;28;20811;-83
2021/08/06 06:52:58;;;;;;;17.80;13.13;;;18.50;99.90;;;;;;5027870;28;20514;-83
2021/08/06 06:55:25;;;;;;;13.63;12.37;;;18.60;99.90;;;;;;5029755;28;20510;-83
2021/08/06 06:57:53;;;;;;;12.27;11.03;;;18.70;99.90;;;;;;4993125;28;1001250;-83
2021/08/06 07:00:21;;;;;;;11.53;10.53;;;18.70;99.90;;;;;;5030930;28;20284;-84
2021/08/06 07:02:48;;;;;;;9.87;8.97;;;18.80;99.90;;;;;;5029878;28;20445;-84
2021/08/06 07:05:16;;;;;;;9.60;8.70;;;18.80;99.90;;;;;;5030331;28;20543;-84
2021/08/06 07:07:43;;;;;;;10.00;9.10;;;18.80;99.90;;;;;;5028581;28;20502;-84
2021/08/06 07:10:12;;;;;;;9.80;8.80;;;18.80;99.90;;;;;;5022773;28;20443;-84
2021/08/06 07:12:41;;;;;;;9.20;8.30;;;18.90;99.90;;;;;;5021975;28;20479;-88
2021/08/06 07:15:21;;;;;;;8.97;8.27;;;18.80;99.90;;;;;;5031832;28;20448;-89
2021/08/06 07:18:24;;;;;;;9.20;8.40;;;18.90;99.90;;;;;;5032444;28;20483;-89
2021/08/06 07:21:12;;;;;;;10.93;10.00;;;18.90;99.90;;;;;;5035727;28;20454;-89
2021/08/06 07:24:18;;;;;;;12.00;10.17;;;19.10;99.90;;;;;;5037178;28;20420;-88
2021/08/06 07:26:46;;;;;;;8.33;7.67;;;19.40;99.90;;;;;;5028611;28;20511;-89
2021/08/06 07:29:13;;;;;;;10.17;9.23;;;;;;;;;;5026140;28;20444;-89
2021/08/06 07:31:40;;;;;;;9.00;8.20;;;;;;;;;;5029525;28;20510;-89
2021/08/06 07:34:14;;;;;;;11.87;9.90;;;19.30;99.90;;;;;;5028213;28;20440;-89
2021/08/06 07:37:07;;;;;;;11.37;10.27;;;19.30;99.90;;;;;;5027910;28;20476;-89
2021/08/06 07:39:49;;;;;;;10.70;8.80;;;19.30;99.90;;;;;;5034961;28;20443;-89
2021/08/06 07:42:47;;;;;;;9.70;8.50;;;19.70;99.90;;;;;;5034130;28;20444;-89
2021/08/06 07:45:20;;;;;;;7.53;6.83;;;19.50;99.90;;;;;;5010710;28;20468;-90
2021/08/06 07:47:55;;;;;;;6.93;6.37;;;19.70;99.90;;;;;;5014692;28;20469;-88
2021/08/06 07:50:48;;;;;;;6.60;6.00;;;19.70;99.90;;;;;;5012033;28;20474;-87
2021/08/06 07:53:15;;;;;;;7.23;6.53;;;19.80;99.90;;;;;;5008918;28;20548;-87
2021/08/06 07:55:45;;;;;;;7.00;6.23;;;;;;;;;;5007023;28;20471;-85
2021/08/06 07:58:13;;;;;;;8.17;6.87;;;19.90;99.90;;;;;;5004288;28;20572;-89
2021/08/06 08:00:47;;;;;;;9.03;8.17;;;;;;;;;;5004345;28;20452;-88
2021/08/06 08:03:24;;;;;;;8.43;7.13;;;20.20;99.90;;;;;;5006133;28;20431;-88
2021/08/06 08:05:51;;;;;;;7.10;6.50;;;20.10;99.90;;;;;;5007418;28;20432;-88
2021/08/06 08:08:48;;;;;;;6.50;5.90;;;20.30;99.90;;;;;;5010761;28;20445;-88
2021/08/06 08:11:17;;;;;;;7.43;6.70;;;;;;;;;;5008061;28;20468;-88
2021/08/06 08:13:45;;;;;;;6.93;6.27;;;20.40;99.90;;;;;;5003846;28;20946;-88
2021/08/06 08:16:12;;;;;;;6.43;5.93;;;;;;;;;;5000703;28;20503;-89
2021/08/06 08:18:38;;;;;;;8.63;7.90;;;20.50;99.90;;;;;;4999158;28;20515;-88
2021/08/06 08:21:05;;;;;;;8.87;6.20;;;20.50;99.90;;;;;;4998313;28;20449;-89
2021/08/06 08:23:32;;;;;;;8.37;6.90;;;20.50;99.90;;;;;;4998679;28;20449;-88
2021/08/06 08:25:58;;;;;;;9.80;6.60;;;20.70;99.90;;;;;;4999678;28;20483;-87
2021/08/06 08:28:27;;;;;;;7.20;5.30;;;20.70;99.90;;;;;;4999314;28;20459;-89
2021/08/06 08:30:59;;;;;;;6.07;5.57;;;20.80;99.90;;;;;;4999032;28;20495;-88
2021/08/06 08:33:26;;;;;;;8.60;7.80;;;20.80;99.90;;;;;;5002611;28;20500;-88
2021/08/06 08:35:53;;;;;;;8.63;5.60;;;;;;;;;;5000941;28;20441;-88
2021/08/06 08:38:23;;;;;;;6.00;5.40;;;20.90;99.90;;;;;;5000251;28;20441;-88
2021/08/06 08:40:55;;;;;;;5.57;5.07;;;;;;;;;;5000502;28;20453;-88
2021/08/06 08:43:21;;;;;;;7.23;5.13;;;20.90;99.90;;;;;;5001464;28;20465;-88
2021/08/06 08:45:48;;;;;;;7.83;5.40;;;21.40;99.90;;;;;;5001655;28;20475;-87
2021/08/06 08:48:19;;;;;;;9.70;8.80;;;20.90;99.90;;;;;;4999733;28;20448;-88
2021/08/06 08:50:57;;;;;;;6.05;5.53;;;21.10;99.90;;;;;;4999167;28;20935;-88
2021/08/06 08:53:27;;;;;;;8.60;7.80;;;21.30;99.90;;;;;;5007353;28;20206;-87
2021/08/06 08:56:04;;;;;;;5.38;4.93;;;21.50;99.90;;;;;;5005477;28;20492;-89
2021/08/06 08:58:31;;;;;;;5.90;5.40;;;;;;;;;;4998995;28;20210;-88
2021/08/06 09:00:58;;;;;;;7.47;6.77;;;21.40;99.90;;;;;;5001793;28;20456;-79
2021/08/06 09:03:49;;;;;;;5.00;4.60;;;21.00;99.90;;;;;;5003630;28;20445;-87
2021/08/06 09:06:17;;;;;;;3.77;3.33;;;21.50;99.90;;;;;;5003040;28;20571;-87
2021/08/06 09:08:46;;;;;;;4.40;4.00;;;21.60;99.90;;;;;;5003216;28;20453;-87
2021/08/06 09:11:32;;;;;;;6.40;5.80;;;21.60;99.90;;;;;;5012047;28;20433;-87
2021/08/06 09:14:24;;;;;;;3.90;3.57;;;21.60;99.90;;;;;;5011587;28;20444;-87
2021/08/06 09:16:59;;;;;;;3.70;3.40;;;21.60;99.90;;;;;;5019301;28;20457;-88
2021/08/06 09:19:39;;;;;;;8.30;5.50;;;21.70;99.90;;;;;;5020358;28;20432;-86
2021/08/06 09:22:17;;;;;;;6.90;5.30;;;21.80;99.90;;;;;;5020703;28;20525;-87
2021/08/06 09:24:59;;;;;;;6.43;5.33;;;22.00;99.90;;;;;;5020505;28;20448;-87
2021/08/06 09:27:28;;;;;;;6.90;6.20;;;21.90;99.90;;;;;;5018070;28;20476;-88
2021/08/06 09:29:56;;;;;;;5.10;4.37;;;22.20;99.90;;;;;;5016267;28;20923;-88
2021/08/06 09:32:29;;;;;;;6.03;5.43;;;22.00;99.90;;;;;;5012569;28;20508;-87
2021/08/06 09:35:02;;;;;;;5.53;5.03;;;22.00;99.90;;;;;;5015830;28;20453;-86
2021/08/06 09:37:39;;;;;;;4.90;4.50;;;21.90;99.90;;;;;;5013901;28;20477;-88
2021/08/06 09:40:14;;;;;;;5.33;4.83;;;22.10;99.90;;;;;;5004920;28;20468;-87
2021/08/06 09:42:51;;;;;;;4.97;4.30;;;22.20;99.90;;;;;;5006638;28;20448;-87
2021/08/06 09:45:21;;;;;;;5.30;4.80;;;22.30;99.90;;;;;;5003540;28;20421;-87
2021/08/06 09:47:55;;;;;;;4.00;2.73;;;22.50;99.90;;;;;;5000608;28;20838;-87
2021/08/06 09:50:31;;;;;;;4.50;3.60;;;22.50;99.90;;;;;;5002192;28;20804;-87
2021/08/06 09:53:00;;;;;;;8.30;7.33;;;;;;;;;;5003774;28;20472;-88
2021/08/06 09:55:30;;;;;;;4.13;3.83;;;22.50;99.90;;;;;;5000468;28;20950;-86
2021/08/06 09:57:58;;;;;;;4.60;4.17;;;22.40;99.90;;;;;;5000334;28;20484;-87
2021/08/06 10:00:28;;;;;;;4.47;3.90;;;22.50;99.90;;;;;;5001413;28;20457;-86
2021/08/06 10:03:07;;;;;;;4.30;3.60;;;22.60;99.90;;;;;;5000424;28;20457;-87
2021/08/06 10:05:53;;;;;;;3.83;3.30;;;22.60;99.90;;;;;;5001933;28;20433;-88
2021/08/06 10:08:33;;;;;;;4.17;3.60;;;22.80;99.90;;;;;;5002758;28;20456;-86
2021/08/06 10:11:18;;;;;;;3.47;3.23;;;22.90;99.90;;;;;;5000356;28;20456;-88
2021/08/06 10:13:52;;;;;;;4.90;3.53;;;;;;;;;;4998344;28;20477;-87
2021/08/06 10:16:30;;;;;;;4.63;3.63;;;22.90;99.90;;;;;;5000574;28;20476;-86
2021/08/06 10:19:00;;;;;;;2.90;2.53;;;22.90;99.90;;;;;;5001154;28;20409;-86
2021/08/06 10:24:17;;;;;;;6.43;5.00;;;23.10;99.90;;;;;;4993587;28;20457;-87
2021/08/06 10:29:52;;;;;;;4.40;3.53;;;23.20;99.90;;;;;;5000417;28;20448;-88
2021/08/06 10:32:21;;;;;;;4.23;3.43;;;23.10;99.90;;;;;;4999939;28;20484;-86
2021/08/06 10:35:16;;;;;;;4.33;3.93;;;23.90;99.90;;;;;;5001238;28;20464;-86
2021/08/06 10:38:03;;;;;;;3.10;2.90;;;23.10;99.90;;;;;;5000082;28;20563;-86
2021/08/06 10:41:04;;;;;;;4.93;4.53;;;22.70;99.90;;;;;;5000044;28;20460;-86
2021/08/06 10:44:02;;;;;;;6.10;3.10;;;23.00;99.90;;;;;;5002307;28;20519;-88
2021/08/06 10:50:03;;;;;;;5.63;5.13;;;23.20;99.90;;;;;;4939942;29;20498;-87
2021/08/06 10:52:44;;;;;;;4.80;4.30;;;23.30;99.90;;;;;;5003576;28;20828;-86
2021/08/06 10:55:35;;;;;;;4.50;3.97;;;23.40;99.90;;;;;;5002333;28;20495;-87
2021/08/06 10:58:17;;;;;;;3.73;3.47;;;;;;;;;;4999330;28;20459;-87
2021/08/06 11:01:00;;;;;;;4.23;3.83;;;;;;;;;;5000891;28;20441;-87
2021/08/06 11:47:51;;;;;;;3.20;3.00;;;24.80;99.90;;;;;;4980872;28;20472;-86
2021/08/06 11:50:19;;;;;;;4.10;3.80;;;24.40;99.90;;;;;;5015168;22;21013;-81
2021/08/06 11:52:52;;;;;;;3.57;3.27;;;24.40;99.90;;;;;;5029553;28;20484;-81
2021/08/06 11:55:28;;;;;;;5.73;3.70;;;24.30;99.90;;;;;;5032073;28;20432;-81
2021/08/06 11:57:57;;;;;;;4.40;4.10;;;24.20;99.90;;;;;;5032006;28;20443;-81
2021/08/06 12:00:26;;;;;;;4.03;3.73;;;24.10;99.90;;;;;;5017513;28;20498;-80
2021/08/06 12:03:07;;;;;;;5.10;4.60;;;24.00;99.90;;;;;;5020445;28;20444;-82
2021/08/06 12:05:35;;;;;;;4.33;3.87;;;24.00;99.90;;;;;;5023613;28;20467;-83
2021/08/06 12:08:33;;;;;;;3.90;3.60;;;23.90;99.90;;;;;;5027745;28;20448;-81
2021/08/06 12:11:10;;;;;;;3.40;3.20;;;23.90;99.90;;;;;;4987248;28;20462;-81
2021/08/06 12:13:40;;;;;;;3.37;3.07;;;23.90;99.90;;;;;;5017125;28;20488;-82
2021/08/06 12:16:09;;;;;;;4.37;4.07;;;23.90;99.90;;;;;;5021865;28;20456;-82
2021/08/06 12:18:37;;;;;;;7.80;3.80;;;24.00;99.90;;;;;;5021084;28;20456;-82
2021/08/06 12:21:11;;;;;;;3.23;2.93;;;24.10;99.90;;;;;;5029568;28;20616;-81
2021/08/06 12:23:42;;;;;;;7.53;6.73;;;24.20;99.90;;;;;;5027576;28;20428;-82
2021/08/06 12:26:16;;;;;;;4.17;3.50;;;24.30;99.90;;;;;;5021221;28;20444;-82
2021/08/06 12:28:47;;;;;;;3.17;2.97;;;24.30;99.90;;;;;;5029148;28;20433;-80
2021/08/06 12:31:21;;;;;;;3.00;2.80;;;24.40;99.90;;;;;;5025511;28;20468;-82
2021/08/06 12:34:02;;;;;;;4.97;4.47;;;24.40;99.90;;;;;;5020048;28;20476;-83
2021/08/06 12:36:29;;;;;;;2.37;2.17;;;24.50;99.90;;;;;;5023781;28;20583;-83
2021/08/06 12:39:06;;;;;;;3.40;2.30;;;24.50;99.90;;;;;;5022625;28;20875;-82
2021/08/06 12:41:33;;;;;;;7.27;6.50;;;24.50;99.90;;;;;;5028937;28;20487;-80
2021/08/06 12:44:19;;;;;;;7.60;3.03;;;24.50;99.90;;;;;;5037555;28;20452;-81
2021/08/06 12:47:12;;;;;;;3.17;2.97;;;24.50;99.90;;;;;;5035819;28;20440;-83
2021/08/06 12:49:46;;;;;;;2.97;2.77;;;24.50;99.90;;;;;;5035257;28;20420;-82
2021/08/06 12:52:18;;;;;;;3.30;3.00;;;24.50;99.90;;;;;;5031985;28;20816;-80
2021/08/06 12:54:56;;;;;;;2.77;2.57;;;24.60;99.90;;;;;;5031763;28;20471;-81
2021/08/06 12:57:54;;;;;;;2.83;2.63;;;24.50;99.90;;;;;;5033778;28;20463;-81
2021/08/06 13:00:26;;;;;;;2.87;2.57;;;24.50;99.90;;;;;;5034418;28;20468;-81
2021/08/06 13:03:01;;;;;;;4.60;3.57;;;24.40;99.90;;;;;;5037718;28;20432;-80
2021/08/06 13:05:28;;;;;;;10.40;3.70;;;24.50;99.90;;;;;;5035351;28;20471;-82
2021/08/06 13:07:55;;;;;;;4.20;3.80;;;24.40;99.90;;;;;;5028271;28;20447;-82
2021/08/06 13:10:27;;;;;;;3.30;3.00;;;24.50;99.90;;;;;;5025607;28;20468;-82
2021/08/06 13:12:54;;;;;;;3.13;2.93;;;24.40;99.90;;;;;;5027871;28;20514;-82
2021/08/06 13:15:25;;;;;;;4.82;2.88;;;24.40;99.90;;;;;;5030188;28;20447;-82
2021/08/06 13:17:52;;;;;;;3.37;3.10;;;24.40;99.90;;;;;;5034690;28;20253;-82
2021/08/06 13:20:20;;;;;;;3.40;3.10;;;24.50;99.90;;;;;;5033593;28;20463;-82
2021/08/06 13:22:46;;;;;;;3.73;3.43;;;24.50;99.90;;;;;;5031631;28;20510;-83
2021/08/06 13:25:14;;;;;;;2.97;2.77;;;24.60;99.90;;;;;;5033617;28;20474;-81
2021/08/06 13:27:41;;;;;;;3.30;3.10;;;24.60;99.90;;;;;;5027987;28;20514;-83
2021/08/06 13:30:09;;;;;;;2.70;2.50;;;24.80;99.90;;;;;;5032022;28;20472;-82
2021/08/06 13:32:37;;;;;;;3.40;3.10;;;24.80;99.90;;;;;;5028322;28;20470;-82
2021/08/06 13:35:05;;;;;;;3.20;3.00;;;24.90;99.90;;;;;;5034258;28;20498;-82
2021/08/06 13:37:32;;;;;;;4.13;3.83;;;25.00;99.90;;;;;;5028774;28;20452;-84
2021/08/06 13:39:59;;;;;;;3.30;2.57;;;25.10;99.90;;;;;;5034033;28;20483;-83
2021/08/06 13:42:26;;;;;;;2.80;2.60;;;25.20;99.90;;;;;;5034093;28;20452;-83
2021/08/06 13:44:52;;;;;;;3.97;2.90;;;25.20;99.90;;;;;;5034818;28;20506;-83
2021/08/06 13:47:23;;;;;;;3.00;2.80;;;25.30;99.90;;;;;;5033110;28;20472;-83
2021/08/06 13:49:55;;;;;;;2.60;2.40;;;25.00;99.90;;;;;;5034968;28;20421;-84
2021/08/06 13:52:22;;;;;;;2.83;2.63;;;25.10;99.90;;;;;;5030230;28;20479;-84
2021/08/06 13:54:50;;;;;;;3.10;2.90;;;25.10;99.90;;;;;;5020893;28;20526;-84
2021/08/06 13:57:17;;;;;;;3.80;3.50;;;;;;;;;;5020822;28;20514;-83
2021/08/06 13:59:45;;;;;;;2.60;2.40;;;24.90;99.90;;;;;;5021312;28;20934;-85
2021/08/06 14:02:12;;;;;;;3.23;2.87;;;25.00;99.90;;;;;;5020768;28;21032;-85
2021/08/06 14:04:39;;;;;;;5.53;3.23;;;25.10;99.90;;;;;;5021077;28;20459;-85
2021/08/06 14:07:08;;;;;;;5.07;4.10;;;25.10;99.90;;;;;;5019767;28;20495;-83
2021/08/06 14:09:35;;;;;;;3.60;3.30;;;;;;;;;;5020449;28;20535;-83